createdAt,value
2023-05-19T00:01:17.989Z,3.20
2023-05-19T00:04:03.077Z,3.00
2023-05-19T00:06:32.410Z,3.07
2023-05-19T00:09:01.943Z,3.23
2023-05-19T00:11:29.537Z,3.20
2023-05-19T00:13:58.124Z,4.10
2023-05-19T00:16:27.267Z,4.10
2023-05-19T00:18:54.540Z,3.70
2023-05-19T00:21:23.252Z,3.70
2023-05-19T00:23:50.023Z,3.70
2023-05-19T00:26:19.314Z,3.37
2023-05-19T00:28:45.952Z,3.33
2023-05-19T00:31:12.659Z,3.03
2023-05-19T00:33:39.317Z,3.33
2023-05-19T00:36:06.159Z,3.10
2023-05-19T00:38:34.664Z,3.30
2023-05-19T00:41:02.347Z,3.37
2023-05-19T00:43:32.173Z,2.93
2023-05-19T00:45:58.624Z,3.70
2023-05-19T00:48:27.409Z,3.40
2023-05-19T00:50:56.082Z,3.20
2023-05-19T00:53:24.479Z,3.63
2023-05-19T00:55:52.692Z,3.03
2023-05-19T00:58:19.685Z,3.10
2023-05-19T01:00:46.255Z,3.10
2023-05-19T01:03:13.299Z,3.20
2023-05-19T01:06:01.713Z,3.30
2023-05-19T01:08:29.586Z,3.30
2023-05-19T01:10:56.314Z,3.53
2023-05-19T01:13:23.320Z,3.77
2023-05-19T01:16:01.849Z,3.30
2023-05-19T01:18:35.936Z,3.47
2023-05-19T01:21:36.514Z,3.83
2023-05-19T01:24:49.674Z,3.60
2023-05-19T01:27:40.002Z,2.90
2023-05-19T01:30:31.376Z,3.43
2023-05-19T01:33:04.713Z,2.90
2023-05-19T01:35:36.993Z,3.30
2023-05-19T01:38:07.909Z,3.37
2023-05-19T01:40:39.585Z,3.20
2023-05-19T01:43:09.560Z,3.47
2023-05-19T01:45:37.009Z,3.10
2023-05-19T01:48:05.285Z,3.30
2023-05-19T01:50:34.895Z,4.20
2023-05-19T01:53:01.893Z,3.23
2023-05-19T01:55:28.485Z,3.50
2023-05-19T01:58:11.383Z,3.50
2023-05-19T02:00:56.627Z,3.30
2023-05-19T02:03:38.929Z,3.13
2023-05-19T02:06:39.784Z,3.23
2023-05-19T02:09:57.169Z,2.97
2023-05-19T02:12:36.002Z,3.27
2023-05-19T02:15:10.887Z,3.50
2023-05-19T02:17:47.726Z,3.30
2023-05-19T02:20:15.585Z,3.70
2023-05-19T02:22:42.656Z,3.20
2023-05-19T02:25:10.284Z,3.70
2023-05-19T02:27:37.847Z,3.77
2023-05-19T02:30:06.110Z,3.27
2023-05-19T02:32:33.208Z,3.10
2023-05-19T02:35:01.042Z,3.27
2023-05-19T02:37:29.478Z,3.20
2023-05-19T02:39:58.170Z,3.30
2023-05-19T02:42:24.922Z,3.40
2023-05-19T02:44:52.647Z,3.00
2023-05-19T02:47:19.379Z,3.20
2023-05-19T02:49:46.048Z,3.00
2023-05-19T02:52:12.576Z,3.17
2023-05-19T02:54:39.302Z,3.50
2023-05-19T02:57:08.548Z,3.10
2023-05-19T02:59:35.036Z,3.57
2023-05-19T03:02:02.669Z,3.07
2023-05-19T03:04:32.250Z,3.57
2023-05-19T03:07:01.691Z,3.43
2023-05-19T03:09:28.251Z,3.43
2023-05-19T03:11:54.755Z,3.07
2023-05-19T03:14:24.339Z,2.83
2023-05-19T03:16:51.092Z,3.43
2023-05-19T03:19:18.172Z,2.80
2023-05-19T03:21:45.104Z,3.50
2023-05-19T03:24:11.929Z,2.93
2023-05-19T03:26:38.392Z,3.37
2023-05-19T03:29:04.858Z,2.97
2023-05-19T03:31:31.595Z,2.57
2023-05-19T03:33:59.527Z,2.93
2023-05-19T03:36:31.879Z,3.07
2023-05-19T03:38:59.406Z,3.00
2023-05-19T03:41:26.243Z,3.40
2023-05-19T03:43:53.003Z,3.07
2023-05-19T03:46:19.901Z,3.10
2023-05-19T03:48:46.628Z,3.17
2023-05-19T03:51:13.542Z,3.07
2023-05-19T03:53:41.187Z,3.43
2023-05-19T03:56:08.413Z,3.10
2023-05-19T03:58:37.643Z,3.23
2023-05-19T04:01:04.390Z,4.00
2023-05-19T04:03:31.377Z,3.30
2023-05-19T04:05:58.360Z,3.00
2023-05-19T04:08:25.113Z,3.53
2023-05-19T04:10:51.888Z,3.33
2023-05-19T04:13:18.379Z,3.60
2023-05-19T04:15:45.244Z,3.40
2023-05-19T04:18:11.772Z,3.50
2023-05-19T04:20:38.256Z,2.90
2023-05-19T04:23:04.689Z,3.00
2023-05-19T04:25:31.207Z,3.67
2023-05-19T04:27:58.177Z,2.90
2023-05-19T04:30:25.178Z,3.37
2023-05-19T04:32:51.822Z,3.30
2023-05-19T04:35:20.241Z,3.10
2023-05-19T04:37:46.801Z,3.53
2023-05-19T04:40:13.432Z,3.50
2023-05-19T04:42:41.768Z,3.83
2023-05-19T04:45:09.328Z,3.27
2023-05-19T04:47:38.780Z,3.63
2023-05-19T04:50:05.814Z,3.57
2023-05-19T04:52:34.622Z,3.40
2023-05-19T04:55:01.168Z,3.67
2023-05-19T04:57:27.595Z,3.57
2023-05-19T04:59:59.818Z,3.00
2023-05-19T05:02:29.451Z,3.63
2023-05-19T05:04:56.635Z,3.20
2023-05-19T05:07:23.604Z,3.70
2023-05-19T05:09:50.097Z,3.20
2023-05-19T05:12:18.640Z,4.37
2023-05-19T05:14:45.787Z,3.83
2023-05-19T05:17:13.683Z,3.57
2023-05-19T05:19:41.041Z,3.77
2023-05-19T05:22:08.041Z,3.73
2023-05-19T05:24:34.970Z,3.40
2023-05-19T05:27:02.030Z,3.30
2023-05-19T05:29:28.523Z,3.60
2023-05-19T05:31:56.953Z,3.50
2023-05-19T05:34:23.803Z,3.20
2023-05-19T05:36:50.454Z,3.40
2023-05-19T05:39:17.006Z,3.73
2023-05-19T05:41:45.915Z,3.23
2023-05-19T05:44:12.591Z,3.23
2023-05-19T05:46:39.606Z,4.17
2023-05-19T05:49:10.755Z,4.00
2023-05-19T05:51:37.716Z,3.27
2023-05-19T05:54:06.950Z,4.00
2023-05-19T05:56:34.311Z,3.50
2023-05-19T05:59:02.078Z,3.60
2023-05-19T06:01:30.466Z,4.00
2023-05-19T06:03:57.235Z,4.07
2023-05-19T06:06:23.729Z,3.60
2023-05-19T06:08:50.235Z,3.30
2023-05-19T06:11:16.924Z,3.60
2023-05-19T06:13:43.682Z,3.43
2023-05-19T06:16:10.575Z,3.93
2023-05-19T06:18:37.242Z,3.57
2023-05-19T06:21:03.886Z,3.30
2023-05-19T06:23:31.444Z,3.40
2023-05-19T06:26:03.342Z,3.40
2023-05-19T06:28:30.114Z,3.40
2023-05-19T06:30:56.592Z,3.40
2023-05-19T06:33:23.083Z,3.30
2023-05-19T06:35:49.556Z,3.80
2023-05-19T06:38:16.418Z,4.23
2023-05-19T06:40:44.269Z,4.27
2023-05-19T06:43:11.052Z,3.57
2023-05-19T06:45:37.574Z,3.63
2023-05-19T06:48:05.767Z,3.90
2023-05-19T06:50:32.516Z,3.87
2023-05-19T06:52:59.351Z,3.73
2023-05-19T06:55:25.878Z,3.97
2023-05-19T06:57:52.669Z,3.40
2023-05-19T07:00:22.978Z,3.70
2023-05-19T07:02:50.597Z,3.37
2023-05-19T07:05:17.240Z,3.40
2023-05-19T07:07:43.994Z,3.77
2023-05-19T07:10:10.820Z,3.57
2023-05-19T07:12:37.237Z,3.60
2023-05-19T07:15:04.311Z,3.70
2023-05-19T07:17:30.987Z,3.40
2023-05-19T07:19:57.602Z,3.97
2023-05-19T07:22:24.243Z,3.00
2023-05-19T07:24:51.169Z,3.40
2023-05-19T07:27:17.982Z,3.53
2023-05-19T07:29:44.481Z,3.37
2023-05-19T07:32:11.255Z,3.67
2023-05-19T07:34:37.757Z,4.00
2023-05-19T07:37:06.267Z,3.20
2023-05-19T07:39:33.953Z,3.00
2023-05-19T07:42:00.802Z,3.00
2023-05-19T07:44:28.215Z,3.30
2023-05-19T07:46:56.395Z,3.43
2023-05-19T07:49:23.005Z,3.30
2023-05-19T07:51:51.917Z,3.07
2023-05-19T07:54:18.552Z,3.53
2023-05-19T07:56:45.396Z,3.80
2023-05-19T07:59:12.292Z,3.50
2023-05-19T08:01:38.754Z,3.87
2023-05-19T08:04:05.607Z,3.40
2023-05-19T08:06:33.553Z,3.57
2023-05-19T08:09:00.062Z,3.07
2023-05-19T08:11:26.752Z,3.10
2023-05-19T08:13:53.271Z,3.63
2023-05-19T08:16:19.810Z,3.40
2023-05-19T08:18:46.454Z,3.73
2023-05-19T08:21:12.998Z,3.67
2023-05-19T08:23:39.459Z,3.17
2023-05-19T08:26:06.523Z,3.00
2023-05-19T08:28:33.377Z,2.80
2023-05-19T08:31:00.693Z,3.30
2023-05-19T08:33:27.552Z,3.10
2023-05-19T08:35:57.644Z,3.10
2023-05-19T08:38:26.437Z,2.50
2023-05-19T08:40:53.133Z,2.90
2023-05-19T08:43:19.915Z,3.10
2023-05-19T08:45:48.268Z,3.10
2023-05-19T08:48:18.575Z,2.53
2023-05-19T08:50:57.167Z,2.77
2023-05-19T08:53:33.932Z,2.93
2023-05-19T08:56:37.035Z,2.77
2023-05-19T08:59:06.445Z,2.60
2023-05-19T09:01:33.411Z,2.87
2023-05-19T09:04:00.038Z,2.80
2023-05-19T09:06:27.115Z,2.63
2023-05-19T09:08:53.795Z,2.73
2023-05-19T09:11:20.421Z,3.00
2023-05-19T09:13:47.252Z,2.83
2023-05-19T09:16:15.982Z,2.90
2023-05-19T09:18:55.258Z,2.67
2023-05-19T09:21:31.290Z,2.63
2023-05-19T09:24:06.085Z,2.60
2023-05-19T09:26:42.900Z,2.67
2023-05-19T09:29:17.443Z,2.77
2023-05-19T09:31:56.031Z,2.50
2023-05-19T09:34:25.874Z,2.80
2023-05-19T09:36:54.215Z,2.50
2023-05-19T09:39:25.171Z,2.50
2023-05-19T09:41:58.901Z,2.43
2023-05-19T09:44:31.079Z,2.77
2023-05-19T09:46:58.920Z,2.80
2023-05-19T09:49:30.330Z,2.60
2023-05-19T09:51:58.030Z,2.50
2023-05-19T09:54:26.049Z,2.50
2023-05-19T09:57:04.821Z,2.80
2023-05-19T09:59:33.433Z,2.23
2023-05-19T10:02:01.656Z,2.63
2023-05-19T10:04:30.145Z,2.20
2023-05-19T10:07:01.561Z,2.63
2023-05-19T10:09:29.704Z,2.47
2023-05-19T10:11:57.643Z,2.90
2023-05-19T10:14:29.693Z,2.70
2023-05-19T10:16:59.821Z,2.60
2023-05-19T10:19:28.650Z,2.63
2023-05-19T10:21:56.464Z,2.50
2023-05-19T10:24:23.117Z,2.40
2023-05-19T10:27:03.763Z,2.80
2023-05-19T10:29:34.760Z,2.80
2023-05-19T10:32:09.108Z,2.30
2023-05-19T10:34:57.372Z,2.47
2023-05-19T10:37:57.854Z,2.65
2023-05-19T10:40:41.234Z,2.60
2023-05-19T10:43:12.064Z,2.65
2023-05-19T10:45:53.656Z,2.50
2023-05-19T10:48:21.630Z,2.45
2023-05-19T10:50:48.378Z,2.70
2023-05-19T10:53:22.290Z,2.75
2023-05-19T10:55:53.535Z,2.70
2023-05-19T10:58:45.321Z,2.72
2023-05-19T11:01:15.095Z,2.60
2023-05-19T11:03:50.281Z,2.70
2023-05-19T11:06:22.170Z,2.30
2023-05-19T11:08:57.200Z,2.50
2023-05-19T11:11:24.348Z,2.55
2023-05-19T11:13:52.654Z,2.67
2023-05-19T11:16:21.464Z,2.20
2023-05-19T11:18:50.571Z,2.38
2023-05-19T11:21:20.007Z,2.30
2023-05-19T11:23:46.645Z,2.88
2023-05-19T11:26:13.298Z,2.40
2023-05-19T11:28:40.784Z,2.63
2023-05-19T11:31:10.393Z,2.30
2023-05-19T11:33:37.861Z,2.30
2023-05-19T11:36:04.994Z,2.45
2023-05-19T11:38:32.768Z,2.30
2023-05-19T11:41:01.027Z,2.38
2023-05-19T11:43:28.940Z,2.40
2023-05-19T11:45:56.153Z,2.22
2023-05-19T11:48:23.001Z,2.35
2023-05-19T11:50:50.157Z,2.10
2023-05-19T11:53:20.079Z,2.00
2023-05-19T11:55:48.754Z,2.20
2023-05-19T11:58:16.633Z,1.98
2023-05-19T12:00:46.365Z,2.30
2023-05-19T12:03:13.269Z,2.08
2023-05-19T12:05:45.990Z,2.20
2023-05-19T12:08:13.573Z,1.88
2023-05-19T12:10:43.207Z,2.00
2023-05-19T12:13:10.541Z,2.22
2023-05-19T12:15:37.868Z,2.25
2023-05-19T12:18:04.397Z,2.30
2023-05-19T12:20:35.962Z,2.22
2023-05-19T12:23:03.561Z,2.13
2023-05-19T12:25:31.238Z,2.60
2023-05-19T12:28:04.760Z,2.05
2023-05-19T12:30:34.810Z,1.90
2023-05-19T12:33:02.962Z,1.80
2023-05-19T12:35:33.370Z,1.92
2023-05-19T12:38:05.769Z,2.30
2023-05-19T12:40:34.796Z,2.20
2023-05-19T12:43:01.867Z,1.90
2023-05-19T12:45:29.052Z,2.00
2023-05-19T12:47:56.957Z,2.28
2023-05-19T12:50:31.152Z,1.92
2023-05-19T12:53:00.063Z,2.17
2023-05-19T12:55:26.812Z,2.00
2023-05-19T12:57:58.104Z,2.10
2023-05-19T13:00:28.102Z,2.10
2023-05-19T13:03:08.058Z,2.13
2023-05-19T13:05:38.846Z,1.90
2023-05-19T13:08:12.640Z,2.10
2023-05-19T13:10:40.652Z,2.15
2023-05-19T13:13:09.149Z,1.90
2023-05-19T13:15:39.358Z,2.30
2023-05-19T13:18:09.186Z,1.98
2023-05-19T13:20:44.401Z,2.33
2023-05-19T13:23:13.509Z,2.30
2023-05-19T13:25:41.648Z,2.13
2023-05-19T13:28:09.097Z,1.98
2023-05-19T13:30:38.587Z,2.53
2023-05-19T13:33:05.791Z,2.33
2023-05-19T13:35:37.976Z,2.10
2023-05-19T13:38:10.433Z,1.88
2023-05-19T13:40:40.139Z,2.03
2023-05-19T13:43:07.917Z,1.83
2023-05-19T13:45:34.585Z,2.10
2023-05-19T13:48:01.276Z,2.15
2023-05-19T13:50:28.048Z,2.13
2023-05-19T13:52:54.804Z,1.90
2023-05-19T13:55:22.548Z,2.20
2023-05-19T13:57:49.301Z,2.20
2023-05-19T14:00:16.311Z,1.90
2023-05-19T14:02:43.054Z,1.88
2023-05-19T14:05:12.781Z,1.92
2023-05-19T14:07:39.422Z,2.00
2023-05-19T14:10:06.946Z,2.10
2023-05-19T14:12:44.894Z,1.90
2023-05-19T14:15:19.337Z,2.00
2023-05-19T14:17:46.192Z,2.10
2023-05-19T14:20:13.058Z,2.00
2023-05-19T14:22:40.887Z,1.80
2023-05-19T14:25:08.132Z,2.00
2023-05-19T14:27:34.669Z,1.90
2023-05-19T14:30:01.178Z,2.17
2023-05-19T14:32:30.562Z,2.20
2023-05-19T14:34:57.220Z,1.98
2023-05-19T14:37:24.389Z,1.98
2023-05-19T14:39:50.925Z,2.10
2023-05-19T14:42:17.625Z,2.35
2023-05-19T14:44:44.137Z,2.08
2023-05-19T14:47:11.377Z,2.10
2023-05-19T14:49:38.281Z,1.98
2023-05-19T14:52:05.096Z,2.17
2023-05-19T14:54:31.568Z,2.00
2023-05-19T14:56:59.057Z,2.25
2023-05-19T14:59:25.918Z,1.90
2023-05-19T15:01:52.445Z,2.10
2023-05-19T15:04:18.934Z,2.10
2023-05-19T15:06:48.228Z,2.03
2023-05-19T15:09:19.249Z,2.33
2023-05-19T15:11:45.798Z,2.40
2023-05-19T15:14:12.538Z,2.17
2023-05-19T15:16:39.313Z,2.20
2023-05-19T15:19:06.042Z,2.15
2023-05-19T15:21:32.556Z,2.58
2023-05-19T15:23:59.287Z,1.98
2023-05-19T15:26:29.060Z,2.10
2023-05-19T15:28:56.169Z,2.50
2023-05-19T15:31:22.983Z,2.50
2023-05-19T15:33:49.554Z,2.35
2023-05-19T15:36:17.655Z,2.20
2023-05-19T15:38:44.831Z,2.20
2023-05-19T15:41:11.694Z,2.70
2023-05-19T15:43:40.849Z,2.75
2023-05-19T15:46:07.464Z,2.40
2023-05-19T15:48:34.442Z,2.20
2023-05-19T15:51:01.336Z,2.50
2023-05-19T15:53:28.101Z,2.53
2023-05-19T15:55:54.618Z,2.70
2023-05-19T15:58:21.175Z,2.40
2023-05-19T16:00:48.837Z,3.00
2023-05-19T16:03:15.569Z,2.50
2023-05-19T16:05:42.177Z,2.50
2023-05-19T16:08:08.972Z,2.75
2023-05-19T16:10:35.747Z,2.40
2023-05-19T16:13:02.582Z,2.40
2023-05-19T16:15:29.307Z,2.47
2023-05-19T16:17:55.817Z,2.60
2023-05-19T16:20:26.741Z,2.60
2023-05-19T16:22:54.057Z,2.47
2023-05-19T16:25:21.001Z,2.25
2023-05-19T16:27:49.252Z,2.70
2023-05-19T16:30:16.585Z,2.17
2023-05-19T16:32:43.193Z,2.80
2023-05-19T16:35:10.109Z,2.25
2023-05-19T16:37:37.923Z,2.40
2023-05-19T16:40:05.234Z,2.60
2023-05-19T16:42:32.349Z,2.50
2023-05-19T16:44:59.095Z,2.30
2023-05-19T16:47:25.562Z,2.28
2023-05-19T16:49:52.809Z,2.50
2023-05-19T16:52:20.105Z,2.78
2023-05-19T16:54:46.612Z,2.75
2023-05-19T16:57:14.907Z,2.55
2023-05-19T16:59:42.301Z,2.60
2023-05-19T17:02:09.193Z,2.47
2023-05-19T17:04:35.995Z,3.00
2023-05-19T17:07:02.735Z,2.83
2023-05-19T17:09:29.230Z,2.90
2023-05-19T17:11:56.001Z,2.60
2023-05-19T17:14:22.492Z,2.60
2023-05-19T17:16:49.362Z,2.80
2023-05-19T17:19:16.266Z,3.00
2023-05-19T17:21:43.178Z,2.58
2023-05-19T17:24:09.776Z,2.72
2023-05-19T17:26:36.324Z,3.00
2023-05-19T17:29:02.808Z,2.40
2023-05-19T17:31:29.304Z,2.45
2023-05-19T17:33:55.854Z,2.70
2023-05-19T17:36:22.418Z,2.80
2023-05-19T17:38:48.908Z,2.60
2023-05-19T17:41:15.780Z,3.13
2023-05-19T17:43:42.787Z,2.88
2023-05-19T17:46:09.813Z,2.90
2023-05-19T17:48:36.420Z,2.90
2023-05-19T17:51:07.693Z,3.05
2023-05-19T17:53:34.549Z,3.20
2023-05-19T17:56:03.968Z,3.10
2023-05-19T17:58:32.025Z,3.80
2023-05-19T18:00:59.797Z,2.90
2023-05-19T18:03:27.226Z,3.10
2023-05-19T18:05:54.069Z,2.80
2023-05-19T18:08:21.083Z,3.40
2023-05-19T18:10:49.687Z,2.80
2023-05-19T18:13:16.368Z,3.40
2023-05-19T18:15:43.165Z,3.20
2023-05-19T18:18:10.929Z,3.50
2023-05-19T18:20:44.456Z,3.53
2023-05-19T18:23:11.552Z,3.80
2023-05-19T18:25:39.284Z,3.87
2023-05-19T18:28:06.051Z,3.60
2023-05-19T18:30:34.183Z,3.37
2023-05-19T18:33:03.592Z,3.60
2023-05-19T18:35:30.415Z,3.30
2023-05-19T18:37:57.407Z,3.90
2023-05-19T18:40:24.618Z,3.40
2023-05-19T18:42:51.157Z,4.10
2023-05-19T18:45:21.103Z,4.30
2023-05-19T18:47:47.658Z,3.40
2023-05-19T18:50:14.557Z,3.13
2023-05-19T18:52:41.091Z,3.00
2023-05-19T18:55:08.021Z,3.00
2023-05-19T18:57:34.499Z,3.07
2023-05-19T19:00:01.789Z,3.30
2023-05-19T19:02:28.348Z,3.20
2023-05-19T19:04:55.109Z,3.33
2023-05-19T19:07:21.692Z,3.10
2023-05-19T19:09:48.422Z,3.03
2023-05-19T19:12:15.034Z,3.30
2023-05-19T19:14:41.714Z,3.13
2023-05-19T19:17:08.520Z,3.23
2023-05-19T19:19:35.948Z,3.43
2023-05-19T19:22:03.314Z,3.40
2023-05-19T19:24:31.348Z,3.23
2023-05-19T19:26:57.820Z,3.33
2023-05-19T19:29:24.384Z,3.10
2023-05-19T19:31:51.272Z,3.27
2023-05-19T19:34:21.657Z,3.37
2023-05-19T19:36:48.430Z,3.00
2023-05-19T19:39:15.199Z,3.33
2023-05-19T19:41:41.865Z,3.67
2023-05-19T19:44:08.335Z,3.10
2023-05-19T19:46:35.152Z,3.10
2023-05-19T19:49:02.522Z,3.40
2023-05-19T19:51:29.356Z,3.10
2023-05-19T19:53:56.641Z,3.07
2023-05-19T19:56:24.912Z,2.87
2023-05-19T19:58:53.071Z,3.43
2023-05-19T20:01:39.515Z,3.30
2023-05-19T20:04:06.194Z,3.30
2023-05-19T20:06:33.626Z,3.70
2023-05-19T20:09:00.462Z,5.90
2023-05-19T20:11:27.971Z,3.97
2023-05-19T20:13:54.954Z,3.53
2023-05-19T20:16:21.582Z,3.43
2023-05-19T20:18:48.101Z,3.20
2023-05-19T20:21:14.661Z,3.20
2023-05-19T20:23:41.416Z,3.10
2023-05-19T20:26:12.030Z,3.40
2023-05-19T20:28:39.757Z,3.70
2023-05-19T20:31:07.209Z,3.83
2023-05-19T20:33:33.889Z,3.30
2023-05-19T20:36:00.560Z,3.20
2023-05-19T20:38:27.104Z,3.50
2023-05-19T20:40:54.855Z,3.53
2023-05-19T20:43:21.524Z,3.60
2023-05-19T20:45:48.546Z,3.17
2023-05-19T20:48:16.039Z,3.80
2023-05-19T20:50:42.683Z,3.10
2023-05-19T20:53:10.880Z,3.60
2023-05-19T20:55:38.783Z,3.20
2023-05-19T20:58:05.725Z,3.15
2023-05-19T21:00:32.639Z,3.70
2023-05-19T21:02:59.811Z,3.30
2023-05-19T21:05:30.067Z,3.67
2023-05-19T21:07:56.523Z,4.20
2023-05-19T21:10:23.108Z,3.70
2023-05-19T21:12:49.632Z,3.90
2023-05-19T21:15:16.316Z,4.03
2023-05-19T21:17:43.118Z,3.70
2023-05-19T21:20:10.205Z,3.73
2023-05-19T21:22:36.942Z,3.53
2023-05-19T21:25:04.464Z,3.63
2023-05-19T21:27:32.917Z,4.10
2023-05-19T21:30:00.018Z,3.77
2023-05-19T21:32:27.313Z,3.57
2023-05-19T21:34:53.842Z,3.67
2023-05-19T21:37:21.574Z,3.90
2023-05-19T21:39:48.806Z,4.20
2023-05-19T21:42:15.571Z,4.07
2023-05-19T21:44:42.338Z,4.30
2023-05-19T21:47:08.808Z,4.50
2023-05-19T21:49:35.682Z,3.87
2023-05-19T21:52:02.418Z,4.23
2023-05-19T21:54:29.020Z,4.27
2023-05-19T21:56:55.509Z,3.97
2023-05-19T21:59:24.634Z,4.10
2023-05-19T22:01:51.213Z,4.30
2023-05-19T22:04:18.807Z,4.30
2023-05-19T22:06:46.524Z,4.00
2023-05-19T22:09:13.505Z,4.10
2023-05-19T22:11:40.104Z,4.20
2023-05-19T22:14:06.968Z,4.20
2023-05-19T22:16:35.857Z,4.40
2023-05-19T22:19:02.485Z,4.30
2023-05-19T22:21:30.040Z,4.20
2023-05-19T22:23:59.322Z,4.67
2023-05-19T22:26:26.025Z,4.50
2023-05-19T22:28:53.277Z,4.50
2023-05-19T22:31:19.733Z,4.67
2023-05-19T22:33:46.135Z,4.30
2023-05-19T22:36:13.680Z,4.60
2023-05-19T22:38:40.827Z,4.30
2023-05-19T22:41:07.315Z,4.20
2023-05-19T22:43:34.138Z,4.23
2023-05-19T22:46:00.899Z,4.77
2023-05-19T22:48:27.367Z,4.50
2023-05-19T22:50:53.886Z,4.63
2023-05-19T22:53:20.742Z,4.40
2023-05-19T22:55:47.756Z,4.70
2023-05-19T22:58:14.194Z,4.70
2023-05-19T23:00:40.664Z,4.80
2023-05-19T23:03:07.124Z,4.60
2023-05-19T23:05:34.143Z,4.53
2023-05-19T23:08:01.308Z,4.70
2023-05-19T23:10:27.822Z,4.70
2023-05-19T23:12:54.358Z,4.90
2023-05-19T23:15:21.081Z,5.00
2023-05-19T23:17:47.555Z,4.80
2023-05-19T23:20:14.369Z,4.70
2023-05-19T23:22:40.980Z,5.03
2023-05-19T23:25:09.521Z,4.90
2023-05-19T23:27:36.421Z,4.90
2023-05-19T23:30:03.550Z,4.87
2023-05-19T23:32:30.200Z,5.03
2023-05-19T23:34:56.936Z,4.57
2023-05-19T23:37:23.425Z,4.93
2023-05-19T23:39:50.582Z,5.20
2023-05-19T23:42:18.140Z,4.87
2023-05-19T23:44:44.632Z,4.90
2023-05-19T23:47:11.162Z,5.27
2023-05-19T23:49:40.807Z,4.80
2023-05-19T23:52:07.361Z,5.20
2023-05-19T23:54:36.070Z,5.33
2023-05-19T23:57:03.116Z,4.70
2023-05-19T23:59:29.583Z,4.73
